Cherry Point Marine Corps Ai, North Carolina
Current Conditions -  °F | °C
As of 10:54 AM on Sunday 25 Jan 2015 (Local Time) from KNKT Reporting Station
Clear Clear  
Wind Chill:   Ceiling: Unl
Heat Index:   Visibility: 10mi
Dew Point: -1°   Wind: 6mph
Humidity: 50%   Direction: NA
Pressure: 29.99"   Gusts: NA
Location:  34.8973°N, 76.9091°W
Report Text: KNKT 251554Z VRB05KT 10SM CLR 09/M01 A2999 RMK AO2 SLP150 T00941006 $
Loading
Personal Weather Stations






























Interactive Weather Map New forecast layout! Learn more

10-Day Weather Forecast

Advertisements
Track Severe Weather on mobile